Freedom, Pennsylvania
Current Conditions -  °F | °C
As of 1:47 PM on Friday 21 Nov 2014 (Local Time) from KBVI Reporting Station
Broken Clouds Broken Clouds  
Wind Chill: 19°   Ceiling: 5800
Heat Index: 25°   Visibility: 10mi
Dew Point:   Wind: 5mph
Humidity: 50%   Direction: 260°W
Pressure: 30.44"   Gusts: NA
Location:  40.69°N, 80.25°W
Report Text: KBVI 211847Z 26004KT 10SM BKN058 M04/M13 A3044
Loading
Personal Weather Stations






























Interactive Weather Map New forecast layout! Learn more

10-Day Weather Forecast

Advertisements
Track Severe Weather on mobile